Time;durP1;ratioP1;P1;durP2;ratioP2;P2;SDS_P1;SDS_P2;PMS_P1;PMS_P2;Temp;Humidity;BMP_temperature;BMP_pressure;BME280_temperature;BME280_humidity;BME280_pressure;Samples;Min_cycle;Max_cycle;Signal;HPM_P1;HPM_P2
2023/08/17 00:00:37;;;;;;;5.10;3.90;;;;;;;23.13;67.74;96875.11;108031;1273;136913;-90
2023/08/17 00:03:23;;;;;;;4.70;3.80;;;;;;;23.10;67.98;96874.97;108407;1272;22595;-92
2023/08/17 00:05:49;;;;;;;5.10;4.10;;;;;;;23.08;67.96;96874.89;108636;1272;25303;-91
2023/08/17 00:08:17;;;;;;;5.10;4.30;;;;;;;23.04;67.50;96873.80;108367;1273;137783;-91
2023/08/17 00:10:43;;;;;;;5.00;4.40;;;;;;;23.03;67.72;96873.10;108479;1275;22589;-92
2023/08/17 00:13:15;;;;;;;4.70;3.80;;;;;;;23.04;67.73;96874.74;108645;1273;137442;-92
2023/08/17 00:15:44;;;;;;;6.60;4.40;;;;;;;23.04;68.13;96875.70;108919;1272;22641;-91
2023/08/17 00:18:12;;;;;;;3.90;3.60;;;;;;;23.02;68.17;96877.33;108778;1272;22998;-92
2023/08/17 00:20:38;;;;;;;4.40;3.70;;;;;;;22.99;68.07;96879.69;108909;1273;136618;-91
2023/08/17 00:23:04;;;;;;;4.10;3.70;;;;;;;22.97;67.93;96878.87;108835;1273;25598;-91
2023/08/17 00:25:30;;;;;;;4.20;3.80;;;;;;;22.95;68.00;96882.14;108852;1272;137302;-91
2023/08/17 00:27:58;;;;;;;3.80;3.50;;;;;;;22.93;68.12;96884.39;108879;1272;22717;-91
2023/08/17 00:30:24;;;;;;;4.20;3.80;;;;;;;22.95;68.09;96893.73;108428;1266;136937;-91
2023/08/17 00:32:50;;;;;;;4.30;3.40;;;;;;;22.94;68.61;96893.83;108562;1272;22530;-92
2023/08/17 00:35:16;;;;;;;4.10;3.80;;;;;;;22.90;68.81;96895.57;108492;1272;22489;-91
2023/08/17 00:37:43;;;;;;;7.00;4.30;;;;;;;22.82;70.44;96896.33;108595;1272;137670;-89
2023/08/17 00:40:11;;;;;;;5.10;4.00;;;;;;;22.73;71.13;96901.02;108634;1273;22576;-90
2023/08/17 00:42:37;;;;;;;4.70;4.20;;;;;;;22.67;71.58;96901.27;108397;1272;139617;-91
2023/08/17 00:45:04;;;;;;;4.00;3.60;;;;;;;22.63;71.00;96904.56;108372;1271;26641;-91
2023/08/17 00:47:30;;;;;;;5.10;4.10;;;;;;;22.62;71.19;96905.95;108391;1275;22559;-91
2023/08/17 00:49:58;;;;;;;4.30;3.60;;;;;;;22.60;71.25;96908.46;108345;1272;137632;-89
2023/08/17 00:52:24;;;;;;;3.90;3.50;;;;;;;22.57;71.09;96911.77;108457;1272;23034;-90
2023/08/17 00:54:50;;;;;;;4.70;4.10;;;;;;;22.52;71.16;96913.46;108363;1275;138174;-91
2023/08/17 00:57:19;;;;;;;6.80;4.00;;;;;;;22.48;70.68;96913.14;108603;1275;22566;-92
2023/08/17 00:59:47;;;;;;;4.80;3.80;;;;;;;22.42;70.56;96911.93;108814;1273;22566;-91
2023/08/17 01:02:13;;;;;;;5.50;4.30;;;;;;;22.37;70.90;96913.30;108284;1273;137538;-90
2023/08/17 01:04:39;;;;;;;4.40;3.80;;;;;;;22.35;71.28;96921.16;108479;1268;22554;-91
2023/08/17 01:07:06;;;;;;;5.00;4.50;;;;;;;22.33;70.95;96924.59;108353;1275;137491;-92
2023/08/17 01:09:32;;;;;;;4.20;3.80;;;;;;;22.32;70.82;96928.76;108460;1272;22544;-91
2023/08/17 01:12:26;;;;;;;4.50;4.00;;;;;;;22.32;71.07;96930.56;108466;1275;23430;-91
2023/08/17 01:15:18;;;;;;;4.50;4.10;;;;;;;22.31;71.25;96931.38;108538;1272;22576;-90
2023/08/17 01:17:55;;;;;;;;;;;;;;;22.31;71.13;96932.83;108370;1272;22515;-91
2023/08/17 01:20:21;;;;;;;4.80;4.20;;;;;;;22.28;71.80;96936.30;108490;1268;124052;-91
2023/08/17 01:22:51;;;;;;;4.10;3.70;;;;;;;22.24;71.84;96933.86;108590;1269;22531;-91
2023/08/17 01:25:17;;;;;;;4.40;4.00;;;;;;;22.20;72.17;96928.88;108573;1268;137700;-92
2023/08/17 01:27:45;;;;;;;5.30;3.70;;;;;;;22.16;72.41;96927.98;108662;1270;24454;-92
2023/08/17 01:30:12;;;;;;;6.00;4.60;;;;;;;22.11;72.75;96922.48;109102;1268;22481;-91
2023/08/17 01:32:43;;;;;;;5.50;4.40;;;;;;;22.05;72.68;96922.45;109084;1269;138110;-92
2023/08/17 01:35:16;;;;;;;5.50;4.80;;;;;;;22.01;72.93;96921.70;109202;1271;25782;-90
2023/08/17 01:37:44;;;;;;;5.00;4.10;;;;;;;21.99;73.58;96920.33;109088;1269;137509;-92
2023/08/17 01:40:11;;;;;;;5.50;3.90;;;;;;;21.98;74.27;96919.46;108746;1268;24258;-91
2023/08/17 01:42:37;;;;;;;4.90;4.20;;;;;;;21.95;74.63;96916.86;108710;1269;138167;-91
2023/08/17 01:45:05;;;;;;;5.20;4.50;;;;;;;21.94;74.52;96921.98;108777;1271;26128;-90
2023/08/17 01:47:32;;;;;;;4.50;4.10;;;;;;;21.92;74.52;96917.14;108879;1268;23349;-92
2023/08/17 01:49:59;;;;;;;5.60;4.70;;;;;;;21.89;74.67;96919.42;108838;1268;138330;-91
2023/08/17 01:52:26;;;;;;;4.90;4.20;;;;;;;21.86;74.71;96924.89;108719;1269;24043;-92
2023/08/17 01:55:00;;;;;;;5.10;4.50;;;;;;;21.87;74.30;96927.12;108587;1268;138266;-91
2023/08/17 01:57:28;;;;;;;5.30;4.70;;;;;;;21.87;74.91;96928.57;108715;1272;22548;-91
2023/08/17 02:00:05;;;;;;;;;;;;;;;;;;;;;
2023/08/17 02:02:52;;;;;;;5.80;4.90;;;;;;;21.87;75.45;96930.66;108694;1268;24210;-92
2023/08/17 02:05:19;;;;;;;5.30;4.70;;;;;;;21.84;75.41;96929.67;108828;1272;22558;-91
2023/08/17 02:07:46;;;;;;;5.50;5.00;;;;;;;21.83;75.92;96929.98;108726;1270;138592;-92
2023/08/17 02:10:12;;;;;;;6.20;4.60;;;;;;;21.85;76.01;96928.10;108588;1270;22672;-91
2023/08/17 02:12:43;;;;;;;6.20;5.30;;;;;;;21.83;76.37;96923.84;108465;1268;138356;-89
2023/08/17 02:15:09;;;;;;;6.50;4.40;;;;;;;21.82;76.46;96925.94;108654;1270;22540;-91
2023/08/17 02:17:36;;;;;;;5.20;4.30;;;;;;;21.82;76.68;96927.48;108773;1267;22651;-90
2023/08/17 02:20:03;;;;;;;5.80;4.80;;;;;;;21.82;76.61;96930.02;108749;1269;137718;-92
2023/08/17 02:22:30;;;;;;;4.80;4.40;;;;;;;21.79;76.88;96925.84;108790;1270;23869;-92
2023/08/17 02:24:57;;;;;;;5.70;5.20;;;;;;;21.79;76.98;96921.05;108578;1269;138051;-91
2023/08/17 02:27:23;;;;;;;5.20;4.70;;;;;;;21.79;77.07;96926.67;108540;1272;22591;-91
2023/08/17 02:29:49;;;;;;;5.70;4.90;;;;;;;21.78;77.22;96931.77;108734;1269;22802;-90
2023/08/17 02:32:15;;;;;;;5.60;5.10;;;;;;;21.74;77.56;96935.20;108541;1272;137629;-90
2023/08/17 02:34:42;;;;;;;6.00;5.30;;;;;;;21.69;78.22;96934.02;108586;1270;22523;-91
2023/08/17 02:37:08;;;;;;;6.10;5.50;;;;;;;21.65;78.38;96936.34;108351;1269;138081;-91
2023/08/17 02:39:34;;;;;;;6.70;6.10;;;;;;;21.59;78.80;96937.06;108897;1267;22567;-90
2023/08/17 02:42:00;;;;;;;6.70;6.10;;;;;;;21.52;79.20;96936.75;108811;1267;22948;-91
2023/08/17 02:44:28;;;;;;;7.10;6.50;;;;;;;21.46;79.74;96935.04;108509;1269;139011;-91
2023/08/17 02:46:55;;;;;;;6.70;6.00;;;;;;;21.38;80.09;96930.02;108794;1253;22614;-91
2023/08/17 02:49:21;;;;;;;6.70;5.70;;;;;;;21.30;80.01;96926.23;108482;1272;138331;-91
2023/08/17 02:51:47;;;;;;;6.10;5.60;;;;;;;21.25;80.40;96923.45;108887;1267;22471;-91
2023/08/17 02:54:14;;;;;;;5.40;4.90;;;;;;;21.21;80.04;96924.20;108899;1271;22522;-91
2023/08/17 02:56:40;;;;;;;5.50;5.00;;;;;;;21.18;79.48;96922.98;108395;1269;139040;-91
2023/08/17 02:59:07;;;;;;;6.50;4.40;;;;;;;21.15;79.56;96918.36;108291;1270;22482;-91
2023/08/17 03:01:33;;;;;;;4.70;4.30;;;;;;;21.12;79.48;96919.83;108328;1269;138651;-91
2023/08/17 03:03:59;;;;;;;4.80;4.30;;;;;;;21.09;79.38;96918.60;108841;1268;22530;-91
2023/08/17 03:06:26;;;;;;;5.20;4.70;;;;;;;21.08;79.47;96919.54;108845;1272;26492;-90
2023/08/17 03:08:53;;;;;;;5.20;4.70;;;;;;;21.09;79.38;96926.60;108979;1269;138179;-91
2023/08/17 03:11:40;;;;;;;5.80;5.20;;;;;;;21.07;79.16;96925.19;108851;1261;22867;-91
2023/08/17 03:14:07;;;;;;;6.00;5.50;;;;;;;21.07;79.34;96922.43;108725;1272;137879;-91
2023/08/17 03:16:33;;;;;;;6.00;5.40;;;;;;;21.05;79.53;96917.39;108698;1268;24679;-91
2023/08/17 03:18:59;;;;;;;6.10;5.20;;;;;;;21.05;79.83;96915.25;108746;1269;139999;-90
2023/08/17 03:21:25;;;;;;;6.10;5.40;;;;;;;21.03;80.12;96920.30;108836;1270;22572;-91
2023/08/17 03:23:52;;;;;;;6.50;5.90;;;;;;;20.99;80.39;96919.38;108866;1270;25921;-91
2023/08/17 03:26:18;;;;;;;7.50;6.80;;;;;;;20.96;80.72;96922.31;108725;1272;138523;-91
2023/08/17 03:28:45;;;;;;;7.90;7.10;;;;;;;20.94;81.49;96927.88;108729;1272;25233;-92
2023/08/17 03:31:11;;;;;;;6.40;5.80;;;;;;;20.93;81.81;96924.42;108563;1269;140153;-92
2023/08/17 03:33:37;;;;;;;6.70;6.10;;;;;;;20.91;81.97;96931.69;108465;1269;22628;-91
2023/08/17 03:36:03;;;;;;;7.40;6.70;;;;;;;20.88;82.26;96934.32;108426;1270;24581;-91
2023/08/17 03:38:29;;;;;;;8.10;7.30;;;;;;;20.85;82.86;96929.88;108484;1270;139412;-90
2023/08/17 03:40:55;;;;;;;8.30;7.50;;;;;;;20.82;83.23;96926.73;108716;1270;22572;-91
2023/08/17 03:43:21;;;;;;;9.80;8.90;;;;;;;20.79;84.06;96924.19;108520;1268;138845;-91
2023/08/17 03:45:48;;;;;;;9.50;8.60;;;;;;;20.79;84.54;96927.45;108740;1269;22581;-90
2023/08/17 03:48:14;;;;;;;10.10;9.10;;;;;;;20.76;85.03;96927.67;108574;1272;24186;-91
2023/08/17 03:50:40;;;;;;;9.00;8.20;;;;;;;20.74;85.25;96929.11;108438;1269;138846;-91
2023/08/17 03:53:06;;;;;;;8.40;7.60;;;;;;;20.73;85.64;96930.46;109151;1269;22496;-90
2023/08/17 03:55:32;;;;;;;10.30;8.00;;;;;;;20.71;85.94;96933.23;108389;1270;138781;-91
2023/08/17 03:57:58;;;;;;;10.00;9.00;;;;;;;20.68;86.14;96935.88;108785;1270;24206;-90
2023/08/17 04:00:24;;;;;;;8.50;7.70;;;;;;;20.66;86.46;96938.47;108164;1271;22671;-89
2023/08/17 04:02:50;;;;;;;8.70;7.90;;;;;;;20.64;86.72;96940.36;108409;1268;137738;-90
2023/08/17 04:05:16;;;;;;;8.50;7.60;;;;;;;20.62;87.11;96940.43;108403;1267;22526;-90
2023/08/17 04:07:43;;;;;;;9.60;8.60;;;;;;;20.61;87.07;96945.63;108226;1267;138879;-90
2023/08/17 04:10:09;;;;;;;8.80;7.90;;;;;;;20.59;87.35;96946.44;108227;1267;22585;-90
2023/08/17 04:12:35;;;;;;;9.60;8.70;;;;;;;20.56;87.54;96942.73;108290;1267;139264;-91
2023/08/17 04:15:01;;;;;;;9.50;8.00;;;;;;;20.54;87.54;96952.34;108278;1267;25376;-89
2023/08/17 04:17:27;;;;;;;8.80;8.10;;;;;;;20.55;88.06;96955.54;108427;1267;24289;-89
2023/08/17 04:19:53;;;;;;;10.40;9.30;;;;;;;20.54;88.16;96958.68;108204;1267;138845;-88
2023/08/17 04:22:19;;;;;;;11.90;8.80;;;;;;;20.51;88.43;96957.84;108456;1266;23111;-90
2023/08/17 04:24:45;;;;;;;9.90;9.00;;;;;;;20.47;88.81;96958.98;108641;1272;138913;-90
2023/08/17 04:27:13;;;;;;;10.00;9.00;;;;;;;20.42;89.00;96960.63;108715;1267;22580;-89
2023/08/17 04:29:40;;;;;;;10.60;9.50;;;;;;;20.40;89.48;96962.52;108465;1267;26693;-90
2023/08/17 04:32:06;;;;;;;10.20;9.30;;;;;;;20.37;89.91;96960.70;108133;1267;137975;-89
2023/08/17 04:34:32;;;;;;;11.30;9.50;;;;;;;20.33;90.33;96963.14;108289;1267;22549;-90
2023/08/17 04:36:58;;;;;;;10.60;9.60;;;;;;;20.30;90.53;96968.23;108117;1269;138721;-92
2023/08/17 04:39:24;;;;;;;9.40;8.50;;;;;;;20.27;90.73;96970.71;108623;1272;22588;-91
2023/08/17 04:41:50;;;;;;;9.60;8.60;;;;;;;20.25;90.89;96975.63;108560;1273;22541;-89
2023/08/17 04:44:16;;;;;;;10.80;9.70;;;;;;;20.23;91.05;96981.43;108245;1269;137890;-90
2023/08/17 04:46:42;;;;;;;9.90;9.00;;;;;;;20.22;91.12;96986.52;108023;1275;25423;-90
2023/08/17 04:49:08;;;;;;;9.10;8.20;;;;;;;20.20;91.60;96981.20;108105;1266;139349;-89
2023/08/17 04:51:36;;;;;;;9.40;8.50;;;;;;;20.18;91.57;96983.59;108634;1269;23264;-90
2023/08/17 04:54:02;;;;;;;10.50;9.40;;;;;;;20.17;91.64;96984.08;108952;1270;24258;-91
2023/08/17 04:56:28;;;;;;;8.90;8.00;;;;;;;20.14;91.69;96979.37;108949;1272;138080;-91
2023/08/17 04:58:55;;;;;;;9.20;8.30;;;;;;;20.12;91.99;96980.06;108746;1272;22558;-91
2023/08/17 05:01:21;;;;;;;9.50;8.40;;;;;;;20.10;92.08;96984.55;108751;1272;137839;-91
2023/08/17 05:04:07;;;;;;;8.10;7.40;;;;;;;20.08;92.13;96987.79;108932;1269;26485;-90
2023/08/17 05:06:34;;;;;;;8.60;7.80;;;;;;;20.06;92.24;96988.89;108674;1272;139414;-90
2023/08/17 05:09:00;;;;;;;7.40;6.70;;;;;;;20.05;92.50;96988.70;108346;1267;22535;-90
2023/08/17 05:11:26;;;;;;;7.10;6.50;;;;;;;20.05;92.58;96989.71;108534;1267;25426;-90
2023/08/17 05:14:02;;;;;;;8.00;7.20;;;;;;;20.04;92.77;96984.89;108707;1269;138171;-91
2023/08/17 05:16:48;;;;;;;7.80;7.10;;;;;;;20.04;93.29;96985.83;108873;1272;25310;-91
2023/08/17 05:19:23;;;;;;;7.60;6.90;;;;;;;20.05;93.57;96989.26;108380;1268;138898;-91
2023/08/17 05:21:51;;;;;;;7.50;6.90;;;;;;;20.06;93.82;96986.52;108554;1269;22493;-90
2023/08/17 05:24:17;;;;;;;7.80;7.00;;;;;;;20.08;93.89;96981.18;108704;1269;22851;-91
2023/08/17 05:26:43;;;;;;;8.30;7.40;;;;;;;20.10;94.06;96981.71;108449;1270;138656;-91
2023/08/17 05:29:09;;;;;;;8.60;7.00;;;;;;;20.14;94.23;96980.99;108580;1272;23657;-91
2023/08/17 05:31:37;;;;;;;8.00;7.30;;;;;;;20.17;94.65;96980.34;108715;1272;138170;-90
2023/08/17 05:34:15;;;;;;;7.60;6.90;;;;;;;20.22;95.05;96983.52;110243;1273;22440;-91
2023/08/17 05:36:43;;;;;;;8.50;7.10;;;;;;;20.26;94.99;96986.98;110405;1269;139967;-92
2023/08/17 05:39:10;;;;;;;8.00;7.20;;;;;;;20.31;95.29;96989.81;110343;1276;22361;-91
2023/08/17 05:41:39;;;;;;;7.60;6.90;;;;;;;20.37;95.63;96986.48;110463;1268;23111;-90
2023/08/17 05:44:10;;;;;;;8.30;7.50;;;;;;;20.40;95.43;96986.27;110349;1262;139396;-91
2023/08/17 05:47:00;;;;;;;8.40;7.20;;;;;;;20.45;96.03;96983.33;110346;1267;22216;-91
2023/08/17 05:49:28;;;;;;;7.40;6.70;;;;;;;20.49;96.16;96986.48;110474;1270;137798;-93
2023/08/17 05:52:00;;;;;;;7.40;6.70;;;;;;;20.52;96.20;96982.88;110528;1268;22389;-92
2023/08/17 05:54:45;;;;;;;6.80;6.20;;;;;;;20.56;96.63;96983.42;110320;1269;139070;-91
2023/08/17 05:57:31;;;;;;;7.60;6.90;;;;;;;20.58;96.78;96985.86;110438;1272;22325;-91
2023/08/17 05:59:58;;;;;;;;;;;;;;;20.60;96.65;96984.11;110486;1269;22487;-90
2023/08/17 06:02:49;;;;;;;7.70;7.00;;;;;;;20.62;97.23;96982.40;110451;1269;124621;-91
2023/08/17 06:05:18;;;;;;;7.80;7.10;;;;;;;20.65;97.11;96981.41;110504;1270;23134;-91
2023/08/17 06:08:15;;;;;;;7.80;6.80;;;;;;;20.70;97.41;96980.33;110417;1269;138059;-93
2023/08/17 06:10:42;;;;;;;7.60;6.90;;;;;;;20.74;97.50;96976.59;110237;1270;22375;-92
2023/08/17 06:13:29;;;;;;;9.10;7.20;;;;;;;20.80;97.78;96977.35;109909;1277;138504;-92
2023/08/17 06:16:00;;;;;;;7.40;6.70;;;;;;;20.84;98.03;96974.98;109995;1276;22422;-91
2023/08/17 06:18:26;;;;;;;8.10;7.30;;;;;;;20.91;97.88;96975.86;109945;1281;22316;-91
2023/08/17 06:21:06;;;;;;;8.10;7.30;;;;;;;20.97;97.89;96973.95;109956;1266;22820;-92
2023/08/17 06:23:52;;;;;;;7.80;7.10;;;;;;;21.03;98.17;96972.44;109709;1283;22400;-92
2023/08/17 06:28:18;;;;;;;8.60;7.80;;;;;;;21.14;97.73;96974.88;106452;1300;560453;-90
2023/08/17 06:30:46;;;;;;;8.80;7.90;;;;;;;21.18;97.52;96967.98;108573;1265;137537;-89
2023/08/17 06:33:28;;;;;;;8.70;7.80;;;;;;;21.21;96.33;96965.67;108422;1279;23795;-91
2023/08/17 06:36:21;;;;;;;8.00;7.30;;;;;;;21.27;96.84;96966.14;108547;1276;22866;-92
2023/08/17 06:38:57;;;;;;;8.20;7.50;;;;;;;21.33;96.87;96970.64;108673;1276;137314;-90
2023/08/17 06:41:26;;;;;;;8.80;7.90;;;;;;;21.35;97.24;96965.23;104864;1278;5103630;-90
2023/08/17 06:44:13;;;;;;;8.60;7.80;;;;;;;21.40;97.71;96967.07;108523;1275;138288;-90
2023/08/17 06:46:43;;;;;;;8.90;7.90;;;;;;;21.44;97.64;96967.05;108405;1277;23394;-90
2023/08/17 06:49:12;;;;;;;8.40;7.30;;;;;;;21.48;97.29;96967.66;108318;1278;137691;-90
2023/08/17 06:51:42;;;;;;;8.60;7.60;;;;;;;21.50;96.99;96969.98;108641;1275;25417;-91
2023/08/17 06:54:58;;;;;;;8.20;7.50;;;;;;;21.51;96.96;96967.03;108440;1277;22576;-91
2023/08/17 06:57:45;;;;;;;8.40;7.60;;;;;;;21.56;96.44;96967.73;108230;1277;22507;-90
2023/08/17 07:00:13;;;;;;;9.70;8.70;;;;;;;21.61;95.78;96967.39;107243;1278;23902;-89
2023/08/17 07:02:39;;;;;;;10.00;8.50;;;;;;;21.65;95.36;96968.85;107488;1277;138432;-90
2023/08/17 07:05:06;;;;;;;8.90;8.00;;;;;;;21.71;95.27;96971.80;107626;1276;22496;-90
2023/08/17 07:07:33;;;;;;;7.80;7.20;;;;;;;21.76;95.79;96968.52;107335;1280;138148;-89
2023/08/17 07:09:59;;;;;;;8.70;7.70;;;;;;;21.79;96.11;96969.04;107527;1280;25312;-90
2023/08/17 07:12:25;;;;;;;8.40;7.70;;;;;;;21.80;95.21;96969.16;107519;1280;25871;-90
2023/08/17 07:14:53;;;;;;;8.30;7.00;;;;;;;21.82;96.46;96970.96;107494;1279;138135;-91
2023/08/17 07:17:19;;;;;;;9.40;8.60;;;;;;;21.83;96.47;96974.52;107807;1277;23010;-90
2023/08/17 07:19:45;;;;;;;9.70;8.80;;;;;;;21.85;95.71;96971.21;107466;1276;139246;-90
2023/08/17 07:22:11;;;;;;;9.50;8.70;;;;;;;21.87;94.78;96975.02;107696;1281;24203;-91
2023/08/17 07:24:38;;;;;;;9.70;8.20;;;;;;;21.91;93.94;96975.33;109845;1276;22354;-90
2023/08/17 07:27:04;;;;;;;10.10;8.70;;;;;;;21.95;93.65;96976.83;109697;1276;137564;-90
2023/08/17 07:29:30;;;;;;;10.10;9.00;;;;;;;22.00;93.90;96980.52;109801;1277;23074;-91
2023/08/17 07:32:01;;;;;;;9.10;8.20;;;;;;;22.04;94.24;96977.67;109718;1276;138064;-91
2023/08/17 07:34:28;;;;;;;8.50;7.70;;;;;;;22.07;95.18;96976.73;109808;1275;23048;-91
2023/08/17 07:36:54;;;;;;;11.90;9.20;;;;;;;22.10;94.57;96975.52;109673;1280;139518;-91
2023/08/17 07:39:20;;;;;;;10.20;9.20;;;;;;;22.14;94.11;96968.55;109808;1281;22212;-90
2023/08/17 07:41:47;;;;;;;10.30;9.30;;;;;;;22.20;95.07;96971.06;109958;1276;23466;-91
2023/08/17 07:44:13;;;;;;;9.50;8.50;;;;;;;22.24;94.60;96969.17;109774;1277;137615;-91
2023/08/17 07:46:39;;;;;;;10.90;8.70;;;;;;;22.27;95.38;96970.96;109889;1276;22200;-91
2023/08/17 07:49:06;;;;;;;10.10;9.10;;;;;;;22.29;94.30;96971.27;109658;1277;138209;-91
2023/08/17 07:51:33;;;;;;;12.80;9.30;;;;;;;22.33;94.04;96970.95;109869;1276;22355;-92
2023/08/17 07:54:00;;;;;;;9.50;8.40;;;;;;;22.36;94.42;96969.73;109836;1276;23311;-90
2023/08/17 07:56:26;;;;;;;9.20;8.20;;;;;;;22.39;94.36;96964.95;109662;1278;138321;-91
2023/08/17 07:59:06;;;;;;;;;;;;;;;;;;;;;
2023/08/17 08:01:34;;;;;;;;;;;;;;;22.44;95.43;96964.45;109721;1277;138541;-91
2023/08/17 08:04:00;;;;;;;10.00;9.00;;;;;;;22.46;94.24;96967.58;109865;1278;22379;-92
2023/08/17 08:06:27;;;;;;;9.70;8.20;;;;;;;22.50;95.12;96967.87;109826;1277;22313;-92
2023/08/17 08:08:54;;;;;;;9.80;8.80;;;;;;;22.52;94.94;96964.15;109784;1276;137839;-91
2023/08/17 08:11:22;;;;;;;9.50;8.60;;;;;;;22.56;95.37;96963.77;109864;1278;22308;-90
2023/08/17 08:13:48;;;;;;;9.50;8.40;;;;;;;22.59;95.15;96965.48;109627;1280;138152;-91
2023/08/17 08:16:14;;;;;;;10.10;9.00;;;;;;;22.62;95.46;96961.27;109754;1277;22528;-91
2023/08/17 08:18:39;;;;;;;10.60;9.10;;;;;;;22.65;94.03;96961.26;109749;1280;22218;-91
2023/08/17 08:21:08;;;;;;;11.30;9.80;;;;;;;22.69;94.83;96959.66;109644;1277;137806;-90
2023/08/17 08:23:35;;;;;;;9.90;8.90;;;;;;;22.73;93.32;96959.13;109817;1278;22199;-90
2023/08/17 08:26:00;;;;;;;9.70;8.80;;;;;;;22.79;92.08;96962.81;109790;1274;139970;-92
2023/08/17 08:28:27;;;;;;;11.20;9.50;;;;;;;22.86;92.31;96962.73;109960;1274;23245;-91
2023/08/17 08:30:53;;;;;;;10.10;9.20;;;;;;;22.93;91.72;96959.69;109681;1274;137769;-91
2023/08/17 08:33:19;;;;;;;10.70;9.70;;;;;;;22.99;92.41;96961.52;109827;1276;22247;-91
2023/08/17 08:35:45;;;;;;;9.50;8.60;;;;;;;23.04;90.57;96955.69;109933;1276;22309;-90
2023/08/17 08:38:14;;;;;;;9.40;8.50;;;;;;;23.11;90.59;96957.10;109769;1276;138327;-90
2023/08/17 08:40:40;;;;;;;10.20;9.30;;;;;;;23.17;92.30;96952.71;109856;1276;22366;-91
2023/08/17 08:43:08;;;;;;;11.40;9.60;;;;;;;23.21;92.85;96948.46;109842;1274;138237;-90
2023/08/17 08:45:36;;;;;;;9.90;9.00;;;;;;;23.25;91.87;96944.31;109917;1275;22204;-90
2023/08/17 08:48:03;;;;;;;10.10;9.20;;;;;;;23.28;89.79;96946.77;109946;1274;22241;-91
2023/08/17 08:50:31;;;;;;;9.70;8.90;;;;;;;23.35;90.54;96943.80;109841;1274;138855;-91
2023/08/17 08:53:04;;;;;;;9.60;8.40;;;;;;;23.42;90.91;96944.29;109861;1274;22265;-91
2023/08/17 08:55:35;;;;;;;10.00;9.10;;;;;;;23.47;90.57;96941.75;109760;1274;138159;-91
2023/08/17 08:58:01;;;;;;;;;;;;;;;23.51;90.94;96940.20;109883;1274;22489;-91
2023/08/17 09:00:30;;;;;;;10.30;8.40;;;;;;;23.52;89.00;96934.70;109966;1274;22231;-90
2023/08/17 09:02:56;;;;;;;9.20;8.30;;;;;;;23.56;89.44;96936.17;109841;1273;138116;-91
2023/08/17 09:05:22;;;;;;;8.90;8.20;;;;;;;23.61;88.94;96935.77;110090;1273;22117;-91
2023/08/17 09:07:48;;;;;;;9.40;8.60;;;;;;;23.65;90.79;96935.42;109806;1274;137888;-91
2023/08/17 09:10:16;;;;;;;8.60;7.70;;;;;;;23.69;89.94;96932.92;110016;1274;22278;-91
2023/08/17 09:12:45;;;;;;;9.40;8.50;;;;;;;23.72;88.78;96930.40;109933;1274;23153;-91
2023/08/17 09:15:11;;;;;;;8.60;7.70;;;;;;;23.77;89.31;96931.67;109753;1275;138464;-90
2023/08/17 09:17:39;;;;;;;8.70;7.90;;;;;;;23.81;88.97;96928.63;109973;1274;22191;-91
2023/08/17 09:20:07;;;;;;;9.50;8.10;;;;;;;23.85;88.92;96924.79;109873;1274;137858;-91
2023/08/17 09:22:40;;;;;;;8.80;8.00;;;;;;;23.89;88.79;96923.21;109944;1274;22356;-91
2023/08/17 09:25:06;;;;;;;8.60;7.80;;;;;;;23.93;87.89;96921.67;109764;1274;137914;-90
2023/08/17 09:27:33;;;;;;;8.30;7.50;;;;;;;23.98;87.57;96920.38;109862;1276;22171;-90
2023/08/17 09:30:09;;;;;;;8.40;6.70;;;;;;;24.01;86.68;96921.20;109879;1273;23574;-92
2023/08/17 09:32:36;;;;;;;8.40;7.00;;;;;;;24.08;86.90;96919.96;109744;1274;138474;-90
2023/08/17 09:35:05;;;;;;;9.00;8.00;;;;;;;24.13;86.04;96917.09;109927;1273;22379;-89
2023/08/17 09:37:32;;;;;;;8.20;7.40;;;;;;;24.19;86.07;96914.84;109744;1276;138346;-91
2023/08/17 09:40:00;;;;;;;8.20;7.50;;;;;;;24.24;86.03;96913.71;109840;1274;22377;-90
2023/08/17 09:42:27;;;;;;;7.40;6.70;;;;;;;24.28;84.06;96915.19;109860;1274;23018;-91
2023/08/17 09:44:53;;;;;;;7.90;7.20;;;;;;;24.32;84.05;96910.45;109798;1274;138524;-90
2023/08/17 09:47:21;;;;;;;6.80;6.20;;;;;;;24.33;84.66;96907.91;109795;1279;22290;-91
2023/08/17 09:49:50;;;;;;;7.60;6.80;;;;;;;24.32;83.85;96908.80;109783;1274;138055;-90
2023/08/17 09:52:19;;;;;;;7.20;6.40;;;;;;;24.30;83.29;96905.98;109934;1274;22419;-90
2023/08/17 09:54:47;;;;;;;7.70;6.80;;;;;;;24.28;82.73;96912.80;109854;1274;22454;-90
2023/08/17 09:57:18;;;;;;;7.80;7.10;;;;;;;24.28;82.87;96918.52;109768;1273;138169;-91
2023/08/17 09:59:54;;;;;;;;;;;;;;;;;;;;;
2023/08/17 10:02:23;;;;;;;6.90;6.10;;;;;;;24.30;83.27;96925.05;109732;1273;137677;-90
2023/08/17 10:04:51;;;;;;;8.30;7.60;;;;;;;24.29;83.54;96920.46;109872;1275;22504;-89
2023/08/17 10:07:20;;;;;;;7.90;7.10;;;;;;;24.29;84.13;96915.93;109821;1274;138652;-90
2023/08/17 10:09:51;;;;;;;7.20;6.60;;;;;;;24.27;84.94;96909.60;109899;1276;22407;-91
2023/08/17 10:12:17;;;;;;;7.40;6.70;;;;;;;24.25;85.89;96905.14;109875;1276;22177;-91
2023/08/17 10:14:48;;;;;;;8.10;7.40;;;;;;;24.22;86.43;96906.84;109841;1273;138685;-90
2023/08/17 10:17:16;;;;;;;8.40;7.60;;;;;;;24.20;86.75;96908.31;109906;1274;23074;-90
2023/08/17 10:19:48;;;;;;;8.10;7.20;;;;;;;24.19;87.15;96909.80;109943;1273;138836;-91
2023/08/17 10:22:20;;;;;;;7.10;6.50;;;;;;;24.18;87.82;96912.55;109871;1278;22342;-90
2023/08/17 10:24:46;;;;;;;8.00;7.30;;;;;;;24.16;88.33;96919.88;109949;1275;22049;-91
2023/08/17 10:27:13;;;;;;;8.60;7.80;;;;;;;24.16;88.40;96934.27;109831;1275;138129;-90
2023/08/17 10:29:39;;;;;;;9.10;8.30;;;;;;;24.13;86.51;96949.27;109929;1275;23031;-90
2023/08/17 10:32:08;;;;;;;8.70;7.90;;;;;;;24.14;87.40;96956.23;109829;1274;138535;-89
2023/08/17 10:34:34;;;;;;;8.70;7.80;;;;;;;24.15;88.02;96956.23;110006;1275;22386;-91
2023/08/17 10:37:01;;;;;;;9.40;8.60;;;;;;;24.14;87.91;96951.09;109858;1274;138650;-92
2023/08/17 10:39:28;;;;;;;8.80;8.00;;;;;;;24.13;88.54;96956.17;109962;1275;22213;-90
2023/08/17 10:41:54;;;;;;;9.20;8.40;;;;;;;24.13;89.05;96966.16;110026;1274;22318;-90
2023/08/17 10:44:47;;;;;;;8.50;7.90;;;;;;;24.10;88.63;96965.02;109761;1273;137955;-89
2023/08/17 10:47:27;;;;;;;8.60;7.90;;;;;;;24.06;87.98;96975.48;109997;1274;23703;-90
2023/08/17 10:49:57;;;;;;;8.20;7.40;;;;;;;23.98;86.40;96985.99;109902;1275;138763;-90
2023/08/17 10:52:25;;;;;;;6.30;4.90;;;;;;;23.89;83.46;97005.80;109869;1275;22396;-91
2023/08/17 10:54:51;;;;;;;5.10;4.60;;;;;;;23.72;81.22;97013.23;109981;1275;22789;-91
2023/08/17 10:57:31;;;;;;;5.50;5.00;;;;;;;23.53;81.80;96995.83;109829;1275;137832;-90
2023/08/17 11:00:13;;;;;;;5.80;4.20;;;;;;;23.26;81.96;96991.96;109939;1276;22466;-90
2023/08/17 11:02:40;;;;;;;4.90;4.40;;;;;;;23.06;81.92;97003.69;109653;1274;137078;-90
2023/08/17 11:05:07;;;;;;;3.90;3.50;;;;;;;22.93;82.90;97000.92;109918;1275;22461;-91
2023/08/17 11:07:45;;;;;;;6.10;4.70;;;;;;;22.79;83.35;97003.84;109761;1274;138248;-90
2023/08/17 11:10:34;;;;;;;4.40;4.00;;;;;;;22.61;84.00;97008.81;109944;1275;22460;-91
2023/08/17 11:13:01;;;;;;;6.30;2.90;;;;;;;22.31;84.65;97020.96;109780;1275;138258;-90
2023/08/17 11:15:44;;;;;;;3.10;2.10;;;;;;;22.11;84.50;97018.15;109872;1274;22436;-90
2023/08/17 11:18:11;;;;;;;3.90;1.70;;;;;;;21.94;83.53;97005.27;109877;1278;22402;-90
2023/08/17 11:20:39;;;;;;;2.90;2.30;;;;;;;21.77;85.01;97001.13;109720;1275;138360;-91
2023/08/17 11:23:05;;;;;;;3.20;2.00;;;;;;;21.58;86.04;97001.95;109876;1275;23539;-90
2023/08/17 11:25:32;;;;;;;2.80;1.90;;;;;;;21.35;86.77;97011.54;109836;1275;138398;-92
2023/08/17 11:27:59;;;;;;;3.00;1.90;;;;;;;21.10;87.73;97027.13;109851;1279;23129;-91
2023/08/17 11:30:25;;;;;;;2.80;1.90;;;;;;;20.93;88.95;97032.47;109856;1275;22299;-91
2023/08/17 11:32:52;;;;;;;2.80;2.30;;;;;;;20.82;90.55;97038.05;109825;1271;138320;-90
2023/08/17 11:35:18;;;;;;;2.60;1.50;;;;;;;20.71;90.88;97034.02;109924;1274;22118;-90
2023/08/17 11:37:44;;;;;;;1.80;1.50;;;;;;;20.63;90.85;97026.88;109818;1276;138361;-91